Mitchellville, IA

1:28 PM CDT on April 26, 2015 (GMT -0500)
Ames Municipal | | Change Station
CLOSE
Current Station
Airport
Location: Ames,
Elevation: 955 ft
Nearby Weather Stations

Elev 955 ft 41.99 °N, 93.62 °W | Updated 35 minutes ago

Clear
Clear
59 °F
Feels Like 59 °F
N
13
Wind Variable Wind from NE
Gusts 20 mph

Today
High -- | Low -- °F
--% Chance of Precip.
Yesterday
High -- | Low -- °F
Precip. -- in
6:17 AM 8:05 PM
First Quarter, 57% visible
Pressure 30.06 in
Visibility 10.0 miles
Clouds Clear
Dew Point 31 °F
Humidity 35%
Rainfall 0.00 in
Snow Depth Not available.
UV 10 out of 12
Pollen 10.90 out of 12
Air Quality Not available.
Flu Activity Local Activity
METAR KAMW 261753Z AUTO 05011G17KT 10SM CLR 15/M01 A3006 RMK AO2 SLP179 T01501006 10150 20033 50002

More Conditions Fewer Conditions

Pressure 30.06 in
Visibility 10.0 miles
Clouds Clear
Dew Point 31 °F
Humidity 35%
Rainfall 0.00 in
Snow Depth Not available.
UV 10 out of 12
Pollen 10.90 out of 12
Air Quality Not available.
Flu Activity Local Activity
METAR KAMW 261753Z AUTO 05011G17KT 10SM CLR 15/M01 A3006 RMK AO2 SLP179 T01501006 10150 20033 50002

More Conditions Fewer Conditions

The full scope of the disaster following a powerful 7.8-magnitude earthquake in Nepal may not come into view for days, but global charities are already sending emergency aid. Click to see how you can help.

10-Day Weather Forecast

Almanac

Astronomy

Apr. 26, 2015 Rise Set
Actual Time
Civil Twilight
Nautical Twilight
Astronomical Twilight
Moon
Length of Visible Light
Length of Day
Tomorrow will be .
, % of the Moon is Illuminated

Today's Extremes

State Highs State Lows

Community

WunderPhotos

Upload Photos

1,817,082 photos uploaded!

WunderBlogs® & News

Nearby

Air Quality

  Air Quality AQ Index Pollutant
Not available.

Snow Depth

Station Depth Elevation

Earthquake Activity

City Distance Mag. Time & Date
Minimum magnitude displayed is 2.5.

Coastal Water Temperatures

Place Temperature

Stations

Nearby Weather Stations

Station Location Temp. Windchill Dew Point Humidity Wind Precip. Elev Updated Type